Time;durP1;ratioP1;P1;durP2;ratioP2;P2;SDS_P1;SDS_P2;PMS_P1;PMS_P2;Temp;Humidity;BMP_temperature;BMP_pressure;BME280_temperature;BME280_humidity;BME280_pressure;Samples;Min_cycle;Max_cycle;Signal;HPM_P1;HPM_P2
2023/01/26 00:02:23;;;;;;;17.77;11.70;;;;;;;;;;5037178;28;20053;-86
2023/01/26 00:04:50;;;;;;;19.83;12.18;;;;;;;;;;5037018;28;20045;-86
2023/01/26 00:07:17;;;;;;;19.70;11.75;;;;;;;;;;5054173;28;20076;-87
2023/01/26 00:09:45;;;;;;;23.02;12.82;;;;;;;;;;5037148;28;20041;-86
2023/01/26 00:12:12;;;;;;;20.80;13.40;;;;;;;;;;5036859;28;20048;-85
2023/01/26 00:14:51;;;;;;;21.92;13.15;;;;;;;;;;5036992;28;20059;-86
2023/01/26 00:17:24;;;;;;;22.23;13.77;;;;;;;;;;5036510;28;20060;-86
2023/01/26 00:19:56;;;;;;;22.23;12.85;;;;;;;;;;5036997;28;20064;-86
2023/01/26 00:22:24;;;;;;;23.67;13.70;;;;;;;;;;5036794;28;20556;-86
2023/01/26 00:24:51;;;;;;;20.73;12.75;;;;;;;;;;5037380;28;20140;-85
2023/01/26 00:27:19;;;;;;;21.80;13.40;;;;;;;;;;5036326;28;20102;-86
2023/01/26 00:29:46;;;;;;;20.10;12.52;;;;;;;;;;5036677;28;20055;-86
2023/01/26 00:32:13;;;;;;;22.02;13.05;;;;;;;;;;5036548;28;20049;-86
2023/01/26 00:34:41;;;;;;;23.40;13.32;;;;;;;;;;5036666;28;20055;-86
2023/01/26 00:37:08;;;;;;;21.38;12.70;;;;;;;;;;5036385;28;20051;-86
2023/01/26 00:39:35;;;;;;;21.20;13.23;;;;;;;;;;5036311;28;20513;-86
2023/01/26 00:42:05;;;;;;;20.48;13.00;;;;;;;;;;5036305;28;20076;-86
2023/01/26 00:44:32;;;;;;;18.98;12.23;;;;;;;;;;5036456;28;20041;-85
2023/01/26 00:46:59;;;;;;;20.33;12.75;;;;;;;;;;5036231;28;20136;-86
2023/01/26 00:49:27;;;;;;;22.48;13.23;;;;;;;;;;5036392;28;20051;-86
2023/01/26 00:51:54;;;;;;;19.05;11.20;;;;;;;;;;5036449;28;20052;-85
2023/01/26 00:54:21;;;;;;;19.92;11.90;;;;;;;;;;5035938;28;20063;-86
2023/01/26 00:56:48;;;;;;;20.58;12.85;;;;;;;;;;5036316;28;20463;-86
2023/01/26 00:59:15;;;;;;;19.95;12.23;;;;;;;;;;5036559;28;20063;-86
2023/01/26 01:01:43;;;;;;;19.60;12.82;;;;;;;;;;5040680;28;20116;-87
2023/01/26 01:04:10;;;;;;;19.65;12.50;;;;;;;;;;5038977;28;20052;-86
2023/01/26 01:06:37;;;;;;;18.85;12.50;;;;;;;;;;5035506;28;20409;-87
2023/01/26 01:09:05;;;;;;;18.33;11.10;;;;;;;;;;5036416;28;20045;-87
2023/01/26 01:11:32;;;;;;;19.90;12.57;;;;;;;;;;5036079;28;20051;-87
2023/01/26 01:13:59;;;;;;;21.17;12.98;;;;;;;;;;5053470;28;20145;-86
2023/01/26 01:16:27;;;;;;;17.75;12.10;;;;;;;;;;5035804;28;20073;-87
2023/01/26 01:18:55;;;;;;;20.38;12.77;;;;;;;;;;5035752;28;20079;-86
2023/01/26 01:21:23;;;;;;;22.67;13.27;;;;;;;;;;5035654;28;20477;-87
2023/01/26 01:23:51;;;;;;;18.85;12.82;;;;;;;;;;5035625;28;20408;-87
2023/01/26 01:26:18;;;;;;;21.42;12.00;;;;;;;;;;5035656;28;20084;-86
2023/01/26 01:28:45;;;;;;;18.48;11.98;;;;;;;;;;5035549;28;20144;-87
2023/01/26 01:31:14;;;;;;;19.42;11.82;;;;;;;;;;5035876;28;20051;-87
2023/01/26 01:33:41;;;;;;;20.88;12.82;;;;;;;;;;5035373;28;20094;-87
2023/01/26 01:36:13;;;;;;;19.02;12.68;;;;;;;;;;5035520;28;20048;-86
2023/01/26 01:38:40;;;;;;;17.55;11.15;;;;;;;;;;5035404;28;20141;-86
2023/01/26 01:41:08;;;;;;;19.40;11.93;;;;;;;;;;5035466;28;20084;-87
2023/01/26 01:43:35;;;;;;;21.67;13.30;;;;;;;;;;5035549;28;20395;-86
2023/01/26 01:46:11;;;;;;;22.15;13.52;;;;;;;;;;5052902;28;20137;-87
2023/01/26 01:48:53;;;;;;;23.58;12.95;;;;;;;;;;5035210;28;20053;-87
2023/01/26 01:51:34;;;;;;;20.15;12.85;;;;;;;;;;5053089;28;20055;-86
2023/01/26 01:54:10;;;;;;;22.85;13.60;;;;;;;;;;5034887;28;20166;-86
2023/01/26 01:56:40;;;;;;;20.90;13.23;;;;;;;;;;5035391;28;20075;-86
2023/01/26 01:59:11;;;;;;;23.20;13.18;;;;;;;;;;5035784;28;20053;-86
2023/01/26 02:01:38;;;;;;;22.63;13.50;;;;;;;;;;5052748;28;20127;-87
2023/01/26 02:04:07;;;;;;;20.02;12.55;;;;;;;;;;5035498;28;20490;-87
2023/01/26 02:06:34;;;;;;;22.35;13.05;;;;;;;;;;5035501;28;20055;-87
2023/01/26 02:09:01;;;;;;;22.42;13.65;;;;;;;;;;5035296;28;20497;-86
2023/01/26 02:11:32;;;;;;;24.60;14.18;;;;;;;;;;5035102;28;20059;-87
2023/01/26 02:14:00;;;;;;;25.83;14.80;;;;;;;;;;5039076;28;20073;-87
2023/01/26 02:16:27;;;;;;;24.60;14.80;;;;;;;;;;5045323;28;20079;-87
2023/01/26 02:18:54;;;;;;;21.92;13.98;;;;;;;;;;5038772;28;20045;-87
2023/01/26 02:21:22;;;;;;;22.65;13.50;;;;;;;;;;5039179;28;20059;-87
2023/01/26 02:23:53;;;;;;;23.23;14.30;;;;;;;;;;5039181;28;20107;-86
2023/01/26 02:26:22;;;;;;;22.00;13.05;;;;;;;;;;5038939;28;20083;-86
2023/01/26 02:28:49;;;;;;;23.27;13.50;;;;;;;;;;5038707;28;20420;-86
2023/01/26 02:31:17;;;;;;;24.48;14.35;;;;;;;;;;5038879;28;20499;-86
2023/01/26 02:33:45;;;;;;;24.38;13.75;;;;;;;;;;5039001;28;20057;-86
2023/01/26 02:36:17;;;;;;;24.65;14.90;;;;;;;;;;5038468;28;20045;-86
2023/01/26 02:38:48;;;;;;;25.20;15.43;;;;;;;;;;5038612;28;20132;-87
2023/01/26 02:42:37;;;;;;;25.95;14.75;;;;;;;;;;5038774;28;20049;-87
2023/01/26 02:44:04;;;;;;;24.48;14.10;;;;;;;;;;5056272;28;20053;-86
2023/01/26 02:46:31;;;;;;;21.55;13.07;;;;;;;;;;5038649;28;20053;-87
2023/01/26 02:51:44;;;;;;;23.67;14.48;;;;;;;;;;5056133;28;20049;-86
2023/01/26 02:55:21;;;;;;;21.83;13.75;;;;;;;;;;5038227;28;20061;-87
2023/01/26 02:56:58;;;;;;;21.00;13.20;;;;;;;;;;5055154;28;20041;-86
2023/01/26 02:59:26;;;;;;;18.98;12.68;;;;;;;;;;5038318;28;20139;-87
2023/01/26 03:01:55;;;;;;;21.15;12.98;;;;;;;;;;5038395;28;20132;-87
2023/01/26 03:04:22;;;;;;;23.20;13.02;;;;;;;;;;5038081;28;20055;-86
2023/01/26 03:06:49;;;;;;;20.40;12.93;;;;;;;;;;5038354;28;20094;-85
2023/01/26 03:09:17;;;;;;;22.40;13.52;;;;;;;;;;5037914;28;20051;-86
2023/01/26 03:11:44;;;;;;;19.55;12.35;;;;;;;;;;5038252;28;20044;-86
2023/01/26 03:14:12;;;;;;;23.92;14.23;;;;;;;;;;5038323;28;20064;-86
2023/01/26 03:16:39;;;;;;;23.08;13.27;;;;;;;;;;5055400;28;20493;-86
2023/01/26 03:27:27;;;;;;;29.65;15.40;;;;;;;;;;5057334;28;20509;-87
2023/01/26 03:29:55;;;;;;;30.15;15.45;;;;;;;;;;5042428;28;20448;-86
2023/01/26 03:32:23;;;;;;;31.35;16.10;;;;;;;;;;5037756;28;20051;-87
2023/01/26 03:34:51;;;;;;;28.48;15.68;;;;;;;;;;5037517;28;20064;-87
2023/01/26 03:37:21;;;;;;;30.85;14.90;;;;;;;;;;5037623;28;20053;-86
2023/01/26 03:56:31;;;;;;;31.05;15.73;;;;;;;;;;5054839;28;20556;-86
2023/01/26 03:59:06;;;;;;;31.20;15.50;;;;;;;;;;5037706;28;20053;-86
2023/01/26 04:01:35;;;;;;;33.88;16.67;;;;;;;;;;5037335;28;20107;-87
2023/01/26 04:09:36;;;;;;;29.00;16.08;;;;;;;;;;5054482;28;20387;-87
2023/01/26 04:12:03;;;;;;;29.27;15.38;;;;;;;;;;5036970;28;20557;-87
2023/01/26 04:22:50;;;;;;;26.75;15.10;;;;;;;;;;5054446;28;20497;-86
2023/01/26 04:25:18;;;;;;;29.77;15.32;;;;;;;;;;5036639;28;20053;-85
2023/01/26 04:27:46;;;;;;;27.90;14.90;;;;;;;;;;5036662;28;20045;-87
2023/01/26 04:30:14;;;;;;;26.88;14.63;;;;;;;;;;5036574;28;20060;-86
2023/01/26 04:32:42;;;;;;;28.08;14.88;;;;;;;;;;5036727;28;20114;-86
2023/01/26 04:35:10;;;;;;;30.67;15.57;;;;;;;;;;5036456;28;20048;-86
2023/01/26 04:37:37;;;;;;;30.20;15.88;;;;;;;;;;5036559;28;20053;-86
2023/01/26 04:40:06;;;;;;;28.63;14.95;;;;;;;;;;5041001;28;20071;-86
2023/01/26 04:42:33;;;;;;;27.60;13.73;;;;;;;;;;5044532;28;20131;-87
2023/01/26 04:45:00;;;;;;;26.70;13.70;;;;;;;;;;5036528;28;20049;-86
2023/01/26 04:47:27;;;;;;;25.27;13.57;;;;;;;;;;5036000;28;20055;-87
2023/01/26 04:49:55;;;;;;;24.30;11.98;;;;;;;;;;5036366;28;20345;-86
2023/01/26 04:52:22;;;;;;;23.48;12.85;;;;;;;;;;5036230;28;20086;-86
2023/01/26 04:54:50;;;;;;;25.02;12.95;;;;;;;;;;5035925;28;20079;-86
2023/01/26 04:57:19;;;;;;;21.60;12.13;;;;;;;;;;5036220;28;20076;-86
2023/01/26 04:59:47;;;;;;;21.92;12.38;;;;;;;;;;5053795;28;20044;-86
2023/01/26 05:02:14;;;;;;;21.73;12.32;;;;;;;;;;5035978;28;20048;-86
2023/01/26 05:04:41;;;;;;;19.23;11.27;;;;;;;;;;5035940;28;20041;-86
2023/01/26 05:07:08;;;;;;;20.27;10.65;;;;;;;;;;5036139;28;20053;-86
2023/01/26 05:09:36;;;;;;;18.58;10.82;;;;;;;;;;5035803;28;20511;-86
2023/01/26 05:12:48;;;;;;;20.15;11.48;;;;;;;;;;5036167;28;20049;-86
2023/01/26 05:14:50;;;;;;;17.13;9.20;;;;;;;;;;5043204;28;20049;-86
2023/01/26 05:17:17;;;;;;;17.58;10.02;;;;;;;;;;5035936;28;20059;-86
2023/01/26 05:19:45;;;;;;;19.52;11.07;;;;;;;;;;5035935;28;20055;-86
2023/01/26 05:22:12;;;;;;;19.55;10.63;;;;;;;;;;5036032;28;20135;-86
2023/01/26 05:24:39;;;;;;;16.30;9.02;;;;;;;;;;5036103;28;20515;-86
2023/01/26 05:27:22;;;;;;;19.73;10.50;;;;;;;;;;5035724;28;20045;-86
2023/01/26 05:29:49;;;;;;;17.08;9.23;;;;;;;;;;5035671;28;20049;-86
2023/01/26 05:32:17;;;;;;;17.85;9.00;;;;;;;;;;5035563;28;20052;-86
2023/01/26 05:34:44;;;;;;;16.15;9.50;;;;;;;;;;5035577;28;20489;-86
2023/01/26 05:37:12;;;;;;;17.80;9.80;;;;;;;;;;5035734;28;20490;-86
2023/01/26 05:39:41;;;;;;;16.95;9.52;;;;;;;;;;5035874;28;20068;-86
2023/01/26 05:42:08;;;;;;;17.23;9.80;;;;;;;;;;5035606;28;20088;-86
2023/01/26 05:44:36;;;;;;;18.35;10.00;;;;;;;;;;5035542;28;20051;-87
2023/01/26 05:47:03;;;;;;;19.20;9.90;;;;;;;;;;5035506;28;20140;-86
2023/01/26 05:49:30;;;;;;;17.13;9.90;;;;;;;;;;5035252;28;20137;-86
2023/01/26 05:51:58;;;;;;;17.05;10.15;;;;;;;;;;5037215;28;20507;-86
2023/01/26 05:54:25;;;;;;;19.08;10.23;;;;;;;;;;5054590;28;20120;-86
2023/01/26 05:56:52;;;;;;;21.33;12.40;;;;;;;;;;5039555;28;20416;-86
2023/01/26 05:59:19;;;;;;;24.48;14.52;;;;;;;;;;5039459;28;20497;-86
2023/01/26 06:01:47;;;;;;;19.40;11.13;;;;;;;;;;5039199;28;20045;-87
2023/01/26 06:04:14;;;;;;;16.17;9.18;;;;;;;;;;5039175;28;20059;-87
2023/01/26 06:06:41;;;;;;;42.97;19.90;;;;;;;;;;5039117;28;20045;-86
2023/01/26 06:09:08;;;;;;;16.45;9.52;;;;;;;;;;5039199;28;20055;-86
2023/01/26 06:11:36;;;;;;;16.98;10.13;;;;;;;;;;5039199;28;20068;-86
2023/01/26 06:14:03;;;;;;;23.90;14.13;;;;;;;;;;5038970;28;20059;-86
2023/01/26 06:16:30;;;;;;;28.52;15.93;;;;;;;;;;5039155;28;20051;-86
2023/01/26 06:18:57;;;;;;;24.42;13.30;;;;;;;;;;5038828;28;20559;-85
2023/01/26 06:21:25;;;;;;;16.27;9.30;;;;;;;;;;5038996;28;20055;-86
2023/01/26 06:23:52;;;;;;;16.13;10.13;;;;;;;;;;5039227;28;20504;-86
2023/01/26 06:26:19;;;;;;;17.17;9.55;;;;;;;;;;5038841;28;20067;-86
2023/01/26 06:28:46;;;;;;;15.43;8.95;;;;;;;;;;5038926;28;20052;-86
2023/01/26 06:31:13;;;;;;;18.10;10.68;;;;;;;;;;5038863;28;20516;-87
2023/01/26 06:33:41;;;;;;;17.60;10.52;;;;;;;;;;5038602;28;20056;-86
2023/01/26 06:36:09;;;;;;;18.27;9.90;;;;;;;;;;5055951;28;20220;-86
2023/01/26 06:38:37;;;;;;;18.10;10.68;;;;;;;;;;5038389;28;20401;-86
2023/01/26 06:41:05;;;;;;;19.73;10.00;;;;;;;;;;5056049;28;20048;-86
2023/01/26 06:43:34;;;;;;;16.90;9.15;;;;;;;;;;5038709;28;20084;-86
2023/01/26 06:46:02;;;;;;;16.02;9.57;;;;;;;;;;5038444;28;20132;-86
2023/01/26 06:48:30;;;;;;;20.98;10.85;;;;;;;;;;5038402;28;20505;-86
2023/01/26 06:51:03;;;;;;;55.13;26.52;;;;;;;;;;5038515;28;20059;-86
2023/01/26 06:53:31;;;;;;;;;;;;;;;;;;5038541;28;20106;-86
2023/01/26 06:55:58;;;;;;;16.70;9.98;;;;;;;;;;5038010;28;19921;-86
2023/01/26 06:58:25;;;;;;;20.83;10.30;;;;;;;;;;5055681;28;20474;-86
2023/01/26 07:00:52;;;;;;;16.75;9.35;;;;;;;;;;5055697;28;20136;-86
2023/01/26 07:03:19;;;;;;;16.48;10.35;;;;;;;;;;5037617;28;20402;-86
2023/01/26 07:05:47;;;;;;;17.08;9.23;;;;;;;;;;5038131;28;20417;-86
2023/01/26 07:08:14;;;;;;;16.67;9.43;;;;;;;;;;5050583;28;20033;-85
2023/01/26 07:10:41;;;;;;;16.58;8.68;;;;;;;;;;5040922;28;20075;-86
2023/01/26 07:13:08;;;;;;;14.27;9.40;;;;;;;;;;5037991;28;20045;-86
2023/01/26 07:15:35;;;;;;;13.65;8.65;;;;;;;;;;5038079;28;20316;-86
2023/01/26 07:18:02;;;;;;;14.25;9.27;;;;;;;;;;5037608;28;20449;-85
2023/01/26 07:20:30;;;;;;;14.85;8.43;;;;;;;;;;5027367;28;20128;-87
2023/01/26 07:22:59;;;;;;;15.95;9.55;;;;;;;;;;5018672;28;20073;-86
2023/01/26 07:25:26;;;;;;;14.10;9.18;;;;;;;;;;5018254;28;20053;-87
2023/01/26 07:27:57;;;;;;;16.23;9.95;;;;;;;;;;5018335;28;20049;-87
2023/01/26 07:30:24;;;;;;;16.95;9.63;;;;;;;;;;5017942;28;20056;-86
2023/01/26 07:32:52;;;;;;;16.52;10.00;;;;;;;;;;5018186;28;20406;-86
2023/01/26 07:35:19;;;;;;;21.20;10.23;;;;;;;;;;5017886;28;20061;-86
2023/01/26 07:37:46;;;;;;;18.55;10.75;;;;;;;;;;5017666;28;20540;-86
2023/01/26 07:40:13;;;;;;;16.95;9.15;;;;;;;;;;5034887;28;20052;-86
2023/01/26 07:42:40;;;;;;;11.95;7.97;;;;;;;;;;5017659;28;20067;-86
2023/01/26 07:45:08;;;;;;;12.43;7.65;;;;;;;;;;5017594;28;20076;-86
2023/01/26 07:47:35;;;;;;;15.48;7.95;;;;;;;;;;5017675;28;20056;-86
2023/01/26 07:50:03;;;;;;;13.68;7.50;;;;;;;;;;5017329;28;20049;-86
2023/01/26 07:52:30;;;;;;;12.45;8.15;;;;;;;;;;5017545;28;20045;-86
2023/01/26 07:54:57;;;;;;;12.98;7.55;;;;;;;;;;5017025;28;20156;-86
2023/01/26 07:57:24;;;;;;;14.32;8.10;;;;;;;;;;5017292;28;20136;-86
2023/01/26 07:59:51;;;;;;;12.27;7.63;;;;;;;;;;5017506;28;20073;-86
2023/01/26 08:02:19;;;;;;;13.73;8.40;;;;;;;;;;5017262;28;20140;-87
2023/01/26 08:04:46;;;;;;;13.82;7.55;;;;;;;;;;5034874;28;20065;-86
2023/01/26 08:07:13;;;;;;;17.73;9.13;;;;;;;;;;5017169;28;20045;-85
2023/01/26 08:09:40;;;;;;;13.70;7.57;;;;;;;;;;5017043;28;20452;-86
2023/01/26 08:12:08;;;;;;;12.68;7.55;;;;;;;;;;5017293;28;20482;-87
2023/01/26 08:14:35;;;;;;;11.90;6.63;;;;;;;;;;5016687;28;20061;-86
2023/01/26 08:17:16;;;;;;;12.80;7.72;;;;;;;;;;5034478;28;20046;-86
2023/01/26 08:19:43;;;;;;;10.02;6.40;;;;;;;;;;5017035;28;20053;-87
2023/01/26 08:22:10;;;;;;;20.80;10.73;;;;;;;;;;5032689;28;20049;-86
2023/01/26 08:24:37;;;;;;;16.27;9.27;;;;;;;;;;5017561;28;20049;-86
2023/01/26 08:27:05;;;;;;;11.23;7.18;;;;;;;;;;5016690;28;20414;-86
2023/01/26 08:29:32;;;;;;;11.63;7.57;;;;;;;;;;5016702;28;20064;-86
2023/01/26 08:31:59;;;;;;;14.82;9.00;;;;;;;;;;5016703;28;20513;-87
2023/01/26 08:34:26;;;;;;;10.95;6.78;;;;;;;;;;5016666;28;20053;-87
2023/01/26 08:36:54;;;;;;;10.82;6.68;;;;;;;;;;5016770;28;20056;-86
2023/01/26 08:39:21;;;;;;;8.88;5.72;;;;;;;;;;5016426;28;20046;-87
2023/01/26 08:41:48;;;;;;;9.45;6.05;;;;;;;;;;5016776;28;20137;-87
2023/01/26 08:44:15;;;;;;;10.60;7.07;;;;;;;;;;5016584;28;20136;-86
2023/01/26 08:46:43;;;;;;;45.45;20.60;;;;;;;;;;5016507;28;20052;-86
2023/01/26 08:49:10;;;;;;;10.95;7.15;;;;;;;;;;5016429;28;20057;-87
2023/01/26 08:51:38;;;;;;;11.45;6.60;;;;;;;;;;5016564;28;20482;-87
2023/01/26 08:54:08;;;;;;;11.68;7.22;;;;;;;;;;5016119;28;20059;-86
2023/01/26 08:56:35;;;;;;;15.98;9.52;;;;;;;;;;5014387;28;20053;-86
2023/01/26 08:59:02;;;;;;;22.30;12.75;;;;;;;;;;5016340;28;20045;-86
2023/01/26 09:01:29;;;;;;;13.32;7.03;;;;;;;;;;5016324;28;20512;-86
2023/01/26 09:03:57;;;;;;;17.67;9.68;;;;;;;;;;5016073;28;20072;-86
2023/01/26 09:06:26;;;;;;;13.23;8.02;;;;;;;;;;5016082;28;20077;-86
2023/01/26 09:08:53;;;;;;;15.63;8.20;;;;;;;;;;5016037;28;20132;-86
2023/01/26 09:11:20;;;;;;;13.32;8.25;;;;;;;;;;5033692;28;20053;-86
2023/01/26 09:13:55;;;;;;;16.85;9.93;;;;;;;;;;5016118;28;20046;-87
2023/01/26 09:16:23;;;;;;;15.63;8.13;;;;;;;;;;5015919;28;20099;-86
2023/01/26 09:18:53;;;;;;;13.02;7.75;;;;;;;;;;5016089;28;20107;-86
2023/01/26 09:21:22;;;;;;;10.52;7.07;;;;;;;;;;5016111;28;20470;-86
2023/01/26 09:23:50;;;;;;;13.77;8.15;;;;;;;;;;5015876;28;20068;-86
2023/01/26 09:26:17;;;;;;;13.57;7.88;;;;;;;;;;5015338;28;20053;-86
2023/01/26 09:28:44;;;;;;;12.63;7.93;;;;;;;;;;5015667;28;20049;-87
2023/01/26 09:31:11;;;;;;;22.02;15.25;;;;;;;;;;5015935;28;20136;-86
2023/01/26 09:33:39;;;;;;;32.60;19.10;;;;;;;;;;5016094;28;20079;-86
2023/01/26 09:36:07;;;;;;;15.40;8.65;;;;;;;;;;5032057;28;20509;-87
2023/01/26 09:38:34;;;;;;;14.13;7.85;;;;;;;;;;5015931;28;20046;-86
2023/01/26 09:41:07;;;;;;;12.43;7.50;;;;;;;;;;5033163;28;20053;-87
2023/01/26 09:43:37;;;;;;;13.38;9.00;;;;;;;;;;5015765;28;20532;-86
2023/01/26 09:46:23;;;;;;;14.27;9.93;;;;;;;;;;5015672;28;20076;-87
2023/01/26 09:48:58;;;;;;;24.50;14.48;;;;;;;;;;5015536;28;20057;-86
2023/01/26 09:51:25;;;;;;;18.63;12.13;;;;;;;;;;5015785;28;20056;-86
2023/01/26 09:54:03;;;;;;;9.70;7.15;;;;;;;;;;5015388;28;20063;-87
2023/01/26 09:56:31;;;;;;;7.43;5.50;;;;;;;;;;5015820;28;20069;-86
2023/01/26 09:59:03;;;;;;;16.70;8.85;;;;;;;;;;5015499;28;20585;-85
2023/01/26 10:01:30;;;;;;;16.00;9.15;;;;;;;;;;5033038;28;20054;-86
2023/01/26 10:04:07;;;;;;;7.85;5.40;;;;;;;;;;5015233;28;20049;-86
2023/01/26 10:06:36;;;;;;;5.93;4.57;;;;;;;;;;5032956;28;20056;-86
2023/01/26 10:09:23;;;;;;;8.88;5.35;;;;;;;;;;5032447;28;20508;-87
2023/01/26 10:11:53;;;;;;;7.18;4.88;;;;;;;;;;5033134;28;20085;-86
2023/01/26 10:14:29;;;;;;;7.25;4.88;;;;;;;;;;5015479;28;20056;-86
2023/01/26 10:16:57;;;;;;;6.50;4.60;;;;;;;;;;5032544;28;20045;-87
2023/01/26 10:19:32;;;;;;;10.20;6.78;;;;;;;;;;5015354;28;20053;-87
2023/01/26 10:22:03;;;;;;;9.20;5.32;;;;;;;;;;5015308;28;20049;-86
2023/01/26 10:24:33;;;;;;;6.32;4.47;;;;;;;;;;5015594;28;20059;-86
2023/01/26 10:27:00;;;;;;;8.88;4.32;;;;;;;;;;5015338;28;20387;-86
2023/01/26 10:29:27;;;;;;;5.40;4.07;;;;;;;;;;5015387;28;20042;-87
2023/01/26 10:31:55;;;;;;;5.00;4.05;;;;;;;;;;5032352;28;20052;-87
2023/01/26 10:34:24;;;;;;;7.25;5.22;;;;;;;;;;5015161;28;20472;-87
2023/01/26 10:36:53;;;;;;;9.82;6.97;;;;;;;;;;5015254;28;20057;-86
2023/01/26 10:39:20;;;;;;;6.63;4.88;;;;;;;;;;5034783;28;20446;-86
2023/01/26 10:41:56;;;;;;;7.93;5.20;;;;;;;;;;5036312;28;20052;-86
2023/01/26 10:44:37;;;;;;;25.23;17.38;;;;;;;;;;5018666;28;20050;-86
2023/01/26 10:47:20;;;;;;;26.85;18.15;;;;;;;;;;5018449;28;20111;-86
2023/01/26 10:49:47;;;;;;;61.67;40.47;;;;;;;;;;5035276;28;20050;-87
2023/01/26 10:52:16;;;;;;;109.43;69.57;;;;;;;;;;5018371;28;20047;-86
2023/01/26 10:54:44;;;;;;;7.80;6.25;;;;;;;;;;5035750;28;20053;-87
2023/01/26 10:57:21;;;;;;;10.10;6.32;;;;;;;;;;5018183;28;20045;-86
2023/01/26 10:59:50;;;;;;;6.60;4.78;;;;;;;;;;5035729;28;20049;-87
2023/01/26 11:02:21;;;;;;;22.52;13.48;;;;;;;;;;5035664;28;20046;-86
2023/01/26 11:05:02;;;;;;;51.83;34.75;;;;;;;;;;5017954;28;20045;-85
2023/01/26 11:07:37;;;;;;;10.55;7.18;;;;;;;;;;5018021;28;20045;-86
2023/01/26 11:10:18;;;;;;;9.40;6.45;;;;;;;;;;5017894;28;20392;-87
2023/01/26 11:12:46;;;;;;;8.82;5.78;;;;;;;;;;5018277;28;20046;-86
2023/01/26 11:15:21;;;;;;;9.93;5.90;;;;;;;;;;5018070;28;20053;-86
2023/01/26 11:17:52;;;;;;;9.07;5.97;;;;;;;;;;5017910;28;20045;-86
2023/01/26 11:20:43;;;;;;;10.65;6.38;;;;;;;;;;5018241;28;20057;-86
2023/01/26 11:23:10;;;;;;;13.55;6.45;;;;;;;;;;5018008;28;20064;-86
2023/01/26 11:25:37;;;;;;;11.52;6.60;;;;;;;;;;5017695;28;20417;-86
2023/01/26 11:28:23;;;;;;;10.70;6.88;;;;;;;;;;5017688;28;20127;-86
2023/01/26 11:30:51;;;;;;;9.23;5.65;;;;;;;;;;5017585;28;20054;-87
2023/01/26 11:33:27;;;;;;;10.00;6.75;;;;;;;;;;5017908;28;20053;-87
2023/01/26 11:36:06;;;;;;;13.32;7.28;;;;;;;;;;5017605;28;20053;-87
2023/01/26 11:38:38;;;;;;;8.30;5.65;;;;;;;;;;5017970;28;20056;-87
2023/01/26 11:41:09;;;;;;;22.27;10.77;;;;;;;;;;5017744;28;20515;-87
2023/01/26 11:43:39;;;;;;;29.85;17.55;;;;;;;;;;5017794;28;20524;-87
2023/01/26 11:46:19;;;;;;;101.18;48.53;;;;;;;;;;5017461;28;20415;-87
2023/01/26 11:49:05;;;;;;;81.03;38.95;;;;;;;;;;5017557;28;20045;-87
2023/01/26 11:51:35;;;;;;;130.85;57.92;;;;;;;;;;5017263;28;20053;-86
2023/01/26 11:54:12;;;;;;;42.00;22.55;;;;;;;;;;5013782;28;20486;-86
2023/01/26 11:56:50;;;;;;;18.48;11.10;;;;;;;;;;5014198;28;20128;-86
2023/01/26 11:59:20;;;;;;;128.35;36.47;;;;;;;;;;5013805;28;20046;-87
2023/01/26 12:01:53;;;;;;;130.52;58.85;;;;;;;;;;5022097;28;20053;-86
2023/01/26 12:04:21;;;;;;;62.45;20.13;;;;;;;;;;5020501;28;20104;-86
2023/01/26 12:06:54;;;;;;;19.50;7.40;;;;;;;;;;5014420;28;20565;-87
2023/01/26 12:09:21;;;;;;;12.50;7.53;;;;;;;;;;5013612;28;20088;-86
2023/01/26 12:12:24;;;;;;;14.05;6.93;;;;;;;;;;5014591;28;20052;-86
2023/01/26 12:14:54;;;;;;;32.67;17.92;;;;;;;;;;4957474;28;20050;-86
2023/01/26 12:17:33;;;;;;;45.50;20.15;;;;;;;;;;5003167;28;20066;-86
2023/01/26 12:20:05;;;;;;;18.23;10.05;;;;;;;;;;5013446;28;20407;-86
2023/01/26 12:22:36;;;;;;;13.32;8.40;;;;;;;;;;5014516;28;20050;-86
2023/01/26 12:25:07;;;;;;;14.35;9.15;;;;;;;;;;5013484;28;20048;-86
2023/01/26 12:28:12;;;;;;;11.25;7.00;;;;;;;;;;5013556;28;20069;-87
2023/01/26 12:30:39;;;;;;;;;;;;;;;;;;4991683;28;20058;-86
2023/01/26 12:33:08;;;;;;;38.60;15.35;;;;;;;;;;5013367;28;19921;-86
2023/01/26 12:35:35;;;;;;;12.48;7.72;;;;;;;;;;5013385;28;20046;-86
2023/01/26 12:38:09;;;;;;;9.38;6.25;;;;;;;;;;5014082;28;20048;-86
2023/01/26 12:40:44;;;;;;;67.43;36.53;;;;;;;;;;5014246;28;20053;-87
2023/01/26 12:43:27;;;;;;;14.38;8.57;;;;;;;;;;5012932;28;20479;-86
2023/01/26 12:45:55;;;;;;;13.82;8.35;;;;;;;;;;5032426;28;20053;-87
2023/01/26 12:48:34;;;;;;;12.50;7.15;;;;;;;;;;5033002;28;20046;-86
2023/01/26 12:51:03;;;;;;;11.68;7.15;;;;;;;;;;5032646;28;20057;-87
2023/01/26 12:53:35;;;;;;;15.73;7.65;;;;;;;;;;5034867;28;20129;-87
2023/01/26 12:56:14;;;;;;;9.90;5.88;;;;;;;;;;5036293;28;20452;-87
2023/01/26 12:58:44;;;;;;;9.32;6.22;;;;;;;;;;5053903;28;20045;-87
2023/01/26 13:01:13;;;;;;;11.57;6.53;;;;;;;;;;5035487;28;20056;-87
2023/01/26 13:03:41;;;;;;;8.60;5.80;;;;;;;;;;5036028;28;20528;-86
2023/01/26 13:06:11;;;;;;;10.77;6.65;;;;;;;;;;5035978;28;20072;-86
2023/01/26 13:08:40;;;;;;;9.98;6.30;;;;;;;;;;5036150;28;20051;-86
2023/01/26 13:11:08;;;;;;;10.25;6.70;;;;;;;;;;5035657;28;20045;-87
2023/01/26 13:13:55;;;;;;;17.73;10.00;;;;;;;;;;5036384;28;20124;-87
2023/01/26 13:16:22;;;;;;;;;;;;;;;;;;5052585;28;20575;-86
2023/01/26 13:18:50;;;;;;;11.13;6.47;;;;;;;;;;5036018;28;19921;-86
2023/01/26 13:21:41;;;;;;;17.13;8.27;;;;;;;;;;5036027;28;20044;-87
2023/01/26 13:24:18;;;;;;;26.17;14.63;;;;;;;;;;5019224;28;20099;-87
2023/01/26 13:26:56;;;;;;;13.85;8.93;;;;;;;;;;5035512;28;20052;-86
2023/01/26 13:29:28;;;;;;;22.73;13.93;;;;;;;;;;5035679;28;20088;-86
2023/01/26 13:31:56;;;;;;;11.98;6.63;;;;;;;;;;5034490;28;20144;-86
2023/01/26 13:34:38;;;;;;;10.43;6.38;;;;;;;;;;5053088;28;20091;-86
2023/01/26 13:37:12;;;;;;;10.43;7.05;;;;;;;;;;5035439;28;20083;-86
2023/01/26 13:39:41;;;;;;;16.30;9.82;;;;;;;;;;5035723;28;20067;-87
2023/01/26 13:42:31;;;;;;;8.05;6.07;;;;;;;;;;5053013;28;20055;-86
2023/01/26 13:45:01;;;;;;;8.73;6.82;;;;;;;;;;5052946;28;20049;-86
2023/01/26 13:47:37;;;;;;;9.65;6.90;;;;;;;;;;5035422;28;20045;-86
2023/01/26 13:50:23;;;;;;;11.05;6.85;;;;;;;;;;5035205;28;20045;-87
2023/01/26 13:52:50;;;;;;;10.90;6.70;;;;;;;;;;5035797;28;20051;-87
2023/01/26 13:55:23;;;;;;;13.65;9.45;;;;;;;;;;5035426;28;20053;-86
2023/01/26 13:58:09;;;;;;;12.02;7.47;;;;;;;;;;5053173;28;20499;-86
2023/01/26 14:00:37;;;;;;;17.38;10.65;;;;;;;;;;5052988;28;20390;-87
2023/01/26 14:03:04;;;;;;;15.90;10.38;;;;;;;;;;5035297;28;20041;-87
2023/01/26 14:05:33;;;;;;;13.00;8.30;;;;;;;;;;5035369;28;20060;-86
2023/01/26 14:08:00;;;;;;;14.45;9.02;;;;;;;;;;5035050;28;20045;-86
2023/01/26 14:10:27;;;;;;;11.85;7.72;;;;;;;;;;5035279;28;20041;-86
2023/01/26 14:12:56;;;;;;;13.13;7.78;;;;;;;;;;5054219;28;20049;-86
2023/01/26 14:15:24;;;;;;;10.85;7.35;;;;;;;;;;5039120;28;20060;-86
2023/01/26 14:17:55;;;;;;;12.63;8.30;;;;;;;;;;5039029;28;20505;-86
2023/01/26 14:20:31;;;;;;;12.35;7.63;;;;;;;;;;5039127;28;20417;-86
2023/01/26 14:23:11;;;;;;;14.20;8.95;;;;;;;;;;5056569;28;20059;-86
2023/01/26 14:25:40;;;;;;;13.27;8.05;;;;;;;;;;5038854;28;20447;-87
2023/01/26 14:28:12;;;;;;;23.55;12.70;;;;;;;;;;5044694;28;20048;-87
2023/01/26 14:30:40;;;;;;;13.82;9.27;;;;;;;;;;5048133;28;20502;-87
2023/01/26 14:33:14;;;;;;;12.90;8.07;;;;;;;;;;5038715;28;20087;-87
2023/01/26 14:35:43;;;;;;;12.55;7.53;;;;;;;;;;5056363;28;20052;-86
2023/01/26 14:38:18;;;;;;;12.80;7.82;;;;;;;;;;5038681;28;20504;-86
2023/01/26 14:40:53;;;;;;;21.67;10.88;;;;;;;;;;5056405;28;20080;-86
2023/01/26 14:43:20;;;;;;;14.32;8.80;;;;;;;;;;5038655;28;20466;-87
2023/01/26 14:45:57;;;;;;;26.63;13.30;;;;;;;;;;5056087;28;20391;-86
2023/01/26 14:48:28;;;;;;;18.50;9.98;;;;;;;;;;5038478;28;20041;-87
2023/01/26 14:50:56;;;;;;;13.63;8.85;;;;;;;;;;5038332;28;20057;-86
2023/01/26 14:53:24;;;;;;;24.30;13.05;;;;;;;;;;5038278;28;20577;-87
2023/01/26 14:55:52;;;;;;;27.60;17.38;;;;;;;;;;5036868;28;20059;-86
2023/01/26 14:58:22;;;;;;;19.70;10.77;;;;;;;;;;5038245;28;20555;-86
2023/01/26 15:00:49;;;;;;;16.63;10.60;;;;;;;;;;5038157;28;20045;-87
2023/01/26 15:03:25;;;;;;;16.70;9.57;;;;;;;;;;5038359;28;20049;-86
2023/01/26 15:06:17;;;;;;;17.13;10.05;;;;;;;;;;5038040;28;20049;-86
2023/01/26 15:08:55;;;;;;;15.20;9.45;;;;;;;;;;5026998;28;20053;-86
2023/01/26 15:14:26;;;;;;;;;;;;;;;;;;5055975;28;20049;-87
2023/01/26 15:16:53;;;;;;;17.73;10.15;;;;;;;;;;5055383;28;19968;-87
2023/01/26 15:19:24;;;;;;;20.45;11.85;;;;;;;;;;5038098;28;20049;-86
2023/01/26 15:21:52;;;;;;;21.52;12.70;;;;;;;;;;5037697;28;20416;-87
2023/01/26 15:24:19;;;;;;;22.35;13.35;;;;;;;;;;5054824;28;20405;-86
2023/01/26 15:26:50;;;;;;;26.70;15.65;;;;;;;;;;5055151;28;20493;-86
2023/01/26 15:29:20;;;;;;;20.67;11.60;;;;;;;;;;5037590;28;20055;-86